sensor_id;sensor_type;location;lat;lon;timestamp;P1;durP1;ratioP1;P2;durP2;ratioP2
47153;SDS011;32907;41.412;2.164;2024-02-28T00:01:47;6.00;;;3.50;;
47153;SDS011;32907;41.412;2.164;2024-02-28T00:06:45;5.90;;;3.38;;
47153;SDS011;32907;41.412;2.164;2024-02-28T00:09:16;7.15;;;3.15;;
47153;SDS011;32907;41.412;2.164;2024-02-28T00:11:45;5.88;;;3.25;;
47153;SDS011;32907;41.412;2.164;2024-02-28T00:14:14;6.88;;;3.50;;
47153;SDS011;32907;41.412;2.164;2024-02-28T00:16:43;5.38;;;2.70;;
47153;SDS011;32907;41.412;2.164;2024-02-28T00:19:13;6.15;;;2.75;;
47153;SDS011;32907;41.412;2.164;2024-02-28T00:21:42;4.18;;;2.75;;
47153;SDS011;32907;41.412;2.164;2024-02-28T00:24:10;5.75;;;2.97;;
47153;SDS011;32907;41.412;2.164;2024-02-28T00:26:42;7.55;;;3.30;;
47153;SDS011;32907;41.412;2.164;2024-02-28T00:29:11;4.95;;;3.20;;
47153;SDS011;32907;41.412;2.164;2024-02-28T00:31:39;5.63;;;3.05;;
47153;SDS011;32907;41.412;2.164;2024-02-28T00:34:07;6.55;;;3.20;;
47153;SDS011;32907;41.412;2.164;2024-02-28T00:36:36;6.15;;;3.10;;
47153;SDS011;32907;41.412;2.164;2024-02-28T00:39:22;6.63;;;3.20;;
47153;SDS011;32907;41.412;2.164;2024-02-28T00:41:50;6.07;;;2.95;;
47153;SDS011;32907;41.412;2.164;2024-02-28T00:44:18;5.15;;;3.17;;
47153;SDS011;32907;41.412;2.164;2024-02-28T00:46:46;5.50;;;3.15;;
47153;SDS011;32907;41.412;2.164;2024-02-28T00:49:15;5.05;;;2.88;;
47153;SDS011;32907;41.412;2.164;2024-02-28T00:51:43;4.63;;;3.22;;
47153;SDS011;32907;41.412;2.164;2024-02-28T00:54:14;7.05;;;3.00;;
47153;SDS011;32907;41.412;2.164;2024-02-28T00:56:42;4.72;;;2.65;;
47153;SDS011;32907;41.412;2.164;2024-02-28T00:59:11;3.55;;;2.60;;
47153;SDS011;32907;41.412;2.164;2024-02-28T01:01:40;8.35;;;2.67;;
47153;SDS011;32907;41.412;2.164;2024-02-28T01:04:09;3.53;;;2.20;;
47153;SDS011;32907;41.412;2.164;2024-02-28T01:06:37;5.10;;;2.08;;
47153;SDS011;32907;41.412;2.164;2024-02-28T01:09:06;3.10;;;1.90;;
47153;SDS011;32907;41.412;2.164;2024-02-28T01:11:34;2.45;;;1.90;;
47153;SDS011;32907;41.412;2.164;2024-02-28T01:14:03;3.17;;;1.90;;
47153;SDS011;32907;41.412;2.164;2024-02-28T01:16:32;2.85;;;1.45;;
47153;SDS011;32907;41.412;2.164;2024-02-28T01:19:00;2.40;;;1.50;;
47153;SDS011;32907;41.412;2.164;2024-02-28T01:21:29;3.22;;;1.80;;
47153;SDS011;32907;41.412;2.164;2024-02-28T01:23:57;2.67;;;1.73;;
47153;SDS011;32907;41.412;2.164;2024-02-28T01:26:25;1.88;;;1.35;;
47153;SDS011;32907;41.412;2.164;2024-02-28T01:28:54;1.98;;;1.30;;
47153;SDS011;32907;41.412;2.164;2024-02-28T01:31:22;3.67;;;1.40;;
47153;SDS011;32907;41.412;2.164;2024-02-28T01:33:50;2.60;;;1.27;;
47153;SDS011;32907;41.412;2.164;2024-02-28T01:36:18;2.55;;;1.50;;
47153;SDS011;32907;41.412;2.164;2024-02-28T01:38:46;2.13;;;1.30;;
47153;SDS011;32907;41.412;2.164;2024-02-28T01:41:15;2.85;;;1.45;;
47153;SDS011;32907;41.412;2.164;2024-02-28T01:43:43;1.98;;;1.30;;
47153;SDS011;32907;41.412;2.164;2024-02-28T01:46:22;3.25;;;1.10;;
47153;SDS011;32907;41.412;2.164;2024-02-28T01:48:54;2.38;;;1.05;;
47153;SDS011;32907;41.412;2.164;2024-02-28T01:51:24;1.63;;;0.90;;
47153;SDS011;32907;41.412;2.164;2024-02-28T01:53:55;2.45;;;1.13;;
47153;SDS011;32907;41.412;2.164;2024-02-28T01:56:25;1.38;;;0.82;;
47153;SDS011;32907;41.412;2.164;2024-02-28T01:58:54;1.98;;;1.08;;
47153;SDS011;32907;41.412;2.164;2024-02-28T02:01:25;1.92;;;1.00;;
47153;SDS011;32907;41.412;2.164;2024-02-28T02:03:55;1.90;;;0.90;;
47153;SDS011;32907;41.412;2.164;2024-02-28T02:06:23;1.70;;;0.90;;
47153;SDS011;32907;41.412;2.164;2024-02-28T02:08:52;1.48;;;0.90;;
47153;SDS011;32907;41.412;2.164;2024-02-28T02:11:20;2.53;;;1.10;;
47153;SDS011;32907;41.412;2.164;2024-02-28T02:13:51;2.80;;;1.00;;
47153;SDS011;32907;41.412;2.164;2024-02-28T02:16:20;2.20;;;0.68;;
47153;SDS011;32907;41.412;2.164;2024-02-28T02:18:54;1.27;;;0.70;;
47153;SDS011;32907;41.412;2.164;2024-02-28T02:21:23;1.25;;;0.73;;
47153;SDS011;32907;41.412;2.164;2024-02-28T02:23:54;1.55;;;0.85;;
47153;SDS011;32907;41.412;2.164;2024-02-28T02:26:23;1.73;;;0.90;;
47153;SDS011;32907;41.412;2.164;2024-02-28T02:28:51;1.33;;;0.80;;
47153;SDS011;32907;41.412;2.164;2024-02-28T02:31:20;2.55;;;0.73;;
47153;SDS011;32907;41.412;2.164;2024-02-28T02:33:48;2.17;;;0.88;;
47153;SDS011;32907;41.412;2.164;2024-02-28T02:36:16;2.58;;;0.85;;
47153;SDS011;32907;41.412;2.164;2024-02-28T02:38:45;2.60;;;0.85;;
47153;SDS011;32907;41.412;2.164;2024-02-28T02:41:13;1.65;;;1.10;;
47153;SDS011;32907;41.412;2.164;2024-02-28T02:43:41;1.42;;;0.95;;
47153;SDS011;32907;41.412;2.164;2024-02-28T02:46:09;3.03;;;0.88;;
47153;SDS011;32907;41.412;2.164;2024-02-28T02:48:38;1.85;;;0.80;;
47153;SDS011;32907;41.412;2.164;2024-02-28T02:51:06;2.38;;;1.05;;
47153;SDS011;32907;41.412;2.164;2024-02-28T02:53:34;3.03;;;0.90;;
47153;SDS011;32907;41.412;2.164;2024-02-28T02:56:03;4.95;;;0.88;;
47153;SDS011;32907;41.412;2.164;2024-02-28T02:58:31;1.85;;;0.90;;
47153;SDS011;32907;41.412;2.164;2024-02-28T03:00:59;1.88;;;1.00;;
47153;SDS011;32907;41.412;2.164;2024-02-28T03:03:29;1.60;;;0.88;;
47153;SDS011;32907;41.412;2.164;2024-02-28T03:05:57;2.58;;;0.80;;
47153;SDS011;32907;41.412;2.164;2024-02-28T03:08:26;2.42;;;1.10;;
47153;SDS011;32907;41.412;2.164;2024-02-28T03:10:54;1.73;;;1.00;;
47153;SDS011;32907;41.412;2.164;2024-02-28T03:13:22;1.77;;;0.90;;
47153;SDS011;32907;41.412;2.164;2024-02-28T03:15:50;1.90;;;0.90;;
47153;SDS011;32907;41.412;2.164;2024-02-28T03:18:19;1.33;;;0.80;;
47153;SDS011;32907;41.412;2.164;2024-02-28T03:20:47;1.23;;;0.90;;
47153;SDS011;32907;41.412;2.164;2024-02-28T03:23:16;1.85;;;0.70;;
47153;SDS011;32907;41.412;2.164;2024-02-28T03:25:44;2.15;;;0.85;;
47153;SDS011;32907;41.412;2.164;2024-02-28T03:28:12;1.85;;;0.85;;
47153;SDS011;32907;41.412;2.164;2024-02-28T03:30:41;1.50;;;0.70;;
47153;SDS011;32907;41.412;2.164;2024-02-28T03:33:09;6.22;;;1.00;;
47153;SDS011;32907;41.412;2.164;2024-02-28T03:35:37;1.98;;;0.70;;
47153;SDS011;32907;41.412;2.164;2024-02-28T03:38:05;3.10;;;0.70;;
47153;SDS011;32907;41.412;2.164;2024-02-28T03:40:34;1.88;;;0.80;;
47153;SDS011;32907;41.412;2.164;2024-02-28T03:43:03;2.10;;;0.80;;
47153;SDS011;32907;41.412;2.164;2024-02-28T03:45:36;2.25;;;0.73;;
47153;SDS011;32907;41.412;2.164;2024-02-28T03:48:06;1.42;;;0.70;;
47153;SDS011;32907;41.412;2.164;2024-02-28T03:50:35;2.03;;;0.85;;
47153;SDS011;32907;41.412;2.164;2024-02-28T03:53:03;1.60;;;0.70;;
47153;SDS011;32907;41.412;2.164;2024-02-28T03:55:32;2.03;;;0.75;;
47153;SDS011;32907;41.412;2.164;2024-02-28T03:58:00;1.48;;;0.70;;
47153;SDS011;32907;41.412;2.164;2024-02-28T04:00:29;3.30;;;0.73;;
47153;SDS011;32907;41.412;2.164;2024-02-28T04:02:58;2.22;;;0.82;;
47153;SDS011;32907;41.412;2.164;2024-02-28T04:05:26;2.03;;;0.70;;
47153;SDS011;32907;41.412;2.164;2024-02-28T04:07:54;2.15;;;0.60;;
47153;SDS011;32907;41.412;2.164;2024-02-28T04:10:24;1.40;;;0.60;;
47153;SDS011;32907;41.412;2.164;2024-02-28T04:12:52;1.75;;;0.80;;
47153;SDS011;32907;41.412;2.164;2024-02-28T04:15:20;2.75;;;0.80;;
47153;SDS011;32907;41.412;2.164;2024-02-28T04:17:48;2.13;;;0.60;;
47153;SDS011;32907;41.412;2.164;2024-02-28T04:20:16;1.42;;;0.60;;
47153;SDS011;32907;41.412;2.164;2024-02-28T04:22:45;1.73;;;0.70;;
47153;SDS011;32907;41.412;2.164;2024-02-28T04:25:13;3.05;;;0.57;;
47153;SDS011;32907;41.412;2.164;2024-02-28T04:27:41;1.00;;;0.50;;
47153;SDS011;32907;41.412;2.164;2024-02-28T04:30:10;2.40;;;0.55;;
47153;SDS011;32907;41.412;2.164;2024-02-28T04:32:38;2.45;;;0.70;;
47153;SDS011;32907;41.412;2.164;2024-02-28T04:35:07;1.00;;;0.50;;
47153;SDS011;32907;41.412;2.164;2024-02-28T04:37:35;1.55;;;0.50;;
47153;SDS011;32907;41.412;2.164;2024-02-28T04:40:04;2.20;;;0.57;;
47153;SDS011;32907;41.412;2.164;2024-02-28T04:42:34;1.48;;;0.52;;
47153;SDS011;32907;41.412;2.164;2024-02-28T04:45:02;0.75;;;0.30;;
47153;SDS011;32907;41.412;2.164;2024-02-28T04:47:30;1.70;;;0.40;;
47153;SDS011;32907;41.412;2.164;2024-02-28T04:50:09;1.70;;;0.60;;
47153;SDS011;32907;41.412;2.164;2024-02-28T04:52:38;1.38;;;0.68;;
47153;SDS011;32907;41.412;2.164;2024-02-28T04:55:06;1.95;;;0.57;;
47153;SDS011;32907;41.412;2.164;2024-02-28T04:57:35;2.60;;;0.47;;
47153;SDS011;32907;41.412;2.164;2024-02-28T05:00:04;1.58;;;0.52;;
47153;SDS011;32907;41.412;2.164;2024-02-28T05:02:36;2.95;;;0.80;;
47153;SDS011;32907;41.412;2.164;2024-02-28T05:05:04;3.35;;;0.98;;
47153;SDS011;32907;41.412;2.164;2024-02-28T05:07:33;2.67;;;1.02;;
47153;SDS011;32907;41.412;2.164;2024-02-28T05:10:01;2.42;;;1.30;;
47153;SDS011;32907;41.412;2.164;2024-02-28T05:12:30;2.28;;;1.23;;
47153;SDS011;32907;41.412;2.164;2024-02-28T05:14:58;3.30;;;1.23;;
47153;SDS011;32907;41.412;2.164;2024-02-28T05:17:26;3.03;;;1.08;;
47153;SDS011;32907;41.412;2.164;2024-02-28T05:19:55;2.85;;;1.00;;
47153;SDS011;32907;41.412;2.164;2024-02-28T05:22:24;3.33;;;1.10;;
47153;SDS011;32907;41.412;2.164;2024-02-28T05:24:53;3.25;;;1.00;;
47153;SDS011;32907;41.412;2.164;2024-02-28T05:27:21;1.85;;;0.80;;
47153;SDS011;32907;41.412;2.164;2024-02-28T05:29:50;1.73;;;0.52;;
47153;SDS011;32907;41.412;2.164;2024-02-28T05:32:18;3.10;;;0.75;;
47153;SDS011;32907;41.412;2.164;2024-02-28T05:34:46;1.95;;;0.90;;
47153;SDS011;32907;41.412;2.164;2024-02-28T05:37:15;3.63;;;1.35;;
47153;SDS011;32907;41.412;2.164;2024-02-28T05:39:45;2.67;;;1.40;;
47153;SDS011;32907;41.412;2.164;2024-02-28T05:42:13;3.13;;;1.60;;
47153;SDS011;32907;41.412;2.164;2024-02-28T05:44:42;3.75;;;1.30;;
47153;SDS011;32907;41.412;2.164;2024-02-28T05:47:11;2.65;;;1.20;;
47153;SDS011;32907;41.412;2.164;2024-02-28T05:49:40;3.15;;;1.25;;
47153;SDS011;32907;41.412;2.164;2024-02-28T05:52:09;3.30;;;1.20;;
47153;SDS011;32907;41.412;2.164;2024-02-28T05:54:37;2.35;;;1.08;;
47153;SDS011;32907;41.412;2.164;2024-02-28T05:57:05;2.85;;;0.88;;
47153;SDS011;32907;41.412;2.164;2024-02-28T05:59:33;2.63;;;1.05;;
47153;SDS011;32907;41.412;2.164;2024-02-28T06:02:02;6.53;;;1.50;;
47153;SDS011;32907;41.412;2.164;2024-02-28T06:04:30;4.70;;;1.20;;
47153;SDS011;32907;41.412;2.164;2024-02-28T06:06:58;5.03;;;1.58;;
47153;SDS011;32907;41.412;2.164;2024-02-28T06:09:26;3.95;;;2.25;;
47153;SDS011;32907;41.412;2.164;2024-02-28T06:11:57;4.95;;;2.10;;
47153;SDS011;32907;41.412;2.164;2024-02-28T06:14:27;3.47;;;1.70;;
47153;SDS011;32907;41.412;2.164;2024-02-28T06:16:55;3.05;;;1.20;;
47153;SDS011;32907;41.412;2.164;2024-02-28T06:19:23;2.72;;;1.10;;
47153;SDS011;32907;41.412;2.164;2024-02-28T06:21:51;2.53;;;0.90;;
47153;SDS011;32907;41.412;2.164;2024-02-28T06:24:19;3.35;;;1.08;;
47153;SDS011;32907;41.412;2.164;2024-02-28T06:26:48;4.05;;;1.10;;
47153;SDS011;32907;41.412;2.164;2024-02-28T06:29:17;3.67;;;1.70;;
47153;SDS011;32907;41.412;2.164;2024-02-28T06:31:49;26.08;;;7.50;;
47153;SDS011;32907;41.412;2.164;2024-02-28T06:34:18;8.55;;;3.40;;
47153;SDS011;32907;41.412;2.164;2024-02-28T06:36:46;13.25;;;6.00;;
47153;SDS011;32907;41.412;2.164;2024-02-28T06:39:14;13.75;;;7.60;;
47153;SDS011;32907;41.412;2.164;2024-02-28T06:41:42;10.75;;;5.47;;
47153;SDS011;32907;41.412;2.164;2024-02-28T06:44:10;8.02;;;3.85;;
47153;SDS011;32907;41.412;2.164;2024-02-28T06:46:38;7.90;;;2.95;;
47153;SDS011;32907;41.412;2.164;2024-02-28T06:49:07;4.47;;;2.17;;
47153;SDS011;32907;41.412;2.164;2024-02-28T06:51:35;5.10;;;1.50;;
47153;SDS011;32907;41.412;2.164;2024-02-28T06:54:04;4.85;;;1.60;;
47153;SDS011;32907;41.412;2.164;2024-02-28T06:56:32;5.03;;;1.50;;
47153;SDS011;32907;41.412;2.164;2024-02-28T06:59:00;6.32;;;1.58;;
47153;SDS011;32907;41.412;2.164;2024-02-28T07:01:28;4.70;;;1.50;;
47153;SDS011;32907;41.412;2.164;2024-02-28T07:03:57;3.88;;;1.33;;
47153;SDS011;32907;41.412;2.164;2024-02-28T07:06:25;12.20;;;1.70;;
47153;SDS011;32907;41.412;2.164;2024-02-28T07:08:53;13.05;;;1.60;;
47153;SDS011;32907;41.412;2.164;2024-02-28T07:11:21;12.93;;;1.90;;
47153;SDS011;32907;41.412;2.164;2024-02-28T07:13:50;14.68;;;4.40;;
47153;SDS011;32907;41.412;2.164;2024-02-28T07:16:18;18.25;;;11.65;;
47153;SDS011;32907;41.412;2.164;2024-02-28T07:23:33;4.97;;;2.92;;
47153;SDS011;32907;41.412;2.164;2024-02-28T07:26:01;4.15;;;2.40;;
47153;SDS011;32907;41.412;2.164;2024-02-28T07:28:42;5.20;;;1.60;;
47153;SDS011;32907;41.412;2.164;2024-02-28T07:31:16;6.50;;;1.55;;
47153;SDS011;32907;41.412;2.164;2024-02-28T07:33:45;5.68;;;1.20;;
47153;SDS011;32907;41.412;2.164;2024-02-28T07:36:13;5.35;;;1.20;;
47153;SDS011;32907;41.412;2.164;2024-02-28T07:38:42;6.70;;;2.10;;
47153;SDS011;32907;41.412;2.164;2024-02-28T07:41:10;4.53;;;1.48;;
47153;SDS011;32907;41.412;2.164;2024-02-28T07:43:41;3.85;;;1.02;;
47153;SDS011;32907;41.412;2.164;2024-02-28T07:46:10;4.20;;;1.55;;
47153;SDS011;32907;41.412;2.164;2024-02-28T07:48:39;3.15;;;1.30;;
47153;SDS011;32907;41.412;2.164;2024-02-28T07:51:07;4.32;;;1.02;;
47153;SDS011;32907;41.412;2.164;2024-02-28T07:53:36;11.48;;;6.78;;
47153;SDS011;32907;41.412;2.164;2024-02-28T07:56:04;10.20;;;7.13;;
47153;SDS011;32907;41.412;2.164;2024-02-28T07:58:33;7.28;;;4.93;;
47153;SDS011;32907;41.412;2.164;2024-02-28T08:01:01;8.02;;;2.95;;
47153;SDS011;32907;41.412;2.164;2024-02-28T08:03:29;5.75;;;2.45;;
47153;SDS011;32907;41.412;2.164;2024-02-28T08:05:58;4.85;;;1.90;;
47153;SDS011;32907;41.412;2.164;2024-02-28T08:08:26;3.60;;;1.50;;
47153;SDS011;32907;41.412;2.164;2024-02-28T08:10:54;4.93;;;1.95;;
47153;SDS011;32907;41.412;2.164;2024-02-28T08:13:23;3.97;;;1.45;;
47153;SDS011;32907;41.412;2.164;2024-02-28T08:15:51;4.65;;;1.40;;
47153;SDS011;32907;41.412;2.164;2024-02-28T08:18:21;4.05;;;1.48;;
47153;SDS011;32907;41.412;2.164;2024-02-28T08:20:49;3.72;;;1.25;;
47153;SDS011;32907;41.412;2.164;2024-02-28T08:23:20;3.22;;;1.20;;
47153;SDS011;32907;41.412;2.164;2024-02-28T08:25:48;5.03;;;1.60;;
47153;SDS011;32907;41.412;2.164;2024-02-28T08:28:16;3.50;;;1.40;;
47153;SDS011;32907;41.412;2.164;2024-02-28T08:30:44;5.05;;;1.55;;
47153;SDS011;32907;41.412;2.164;2024-02-28T08:33:12;5.05;;;2.13;;
47153;SDS011;32907;41.412;2.164;2024-02-28T08:35:41;4.93;;;1.45;;
47153;SDS011;32907;41.412;2.164;2024-02-28T08:38:10;7.35;;;1.77;;
47153;SDS011;32907;41.412;2.164;2024-02-28T08:40:39;4.63;;;1.20;;
47153;SDS011;32907;41.412;2.164;2024-02-28T08:43:07;4.07;;;1.48;;
47153;SDS011;32907;41.412;2.164;2024-02-28T08:45:35;3.28;;;1.48;;
47153;SDS011;32907;41.412;2.164;2024-02-28T08:48:05;7.85;;;3.08;;
47153;SDS011;32907;41.412;2.164;2024-02-28T08:50:35;6.47;;;4.65;;
47153;SDS011;32907;41.412;2.164;2024-02-28T08:53:03;5.95;;;4.10;;
47153;SDS011;32907;41.412;2.164;2024-02-28T08:55:32;6.63;;;4.15;;
47153;SDS011;32907;41.412;2.164;2024-02-28T08:58:00;5.95;;;3.47;;
47153;SDS011;32907;41.412;2.164;2024-02-28T09:00:28;6.85;;;3.20;;
47153;SDS011;32907;41.412;2.164;2024-02-28T09:02:57;6.65;;;2.72;;
47153;SDS011;32907;41.412;2.164;2024-02-28T09:05:25;4.93;;;3.33;;
47153;SDS011;32907;41.412;2.164;2024-02-28T09:07:53;5.93;;;3.85;;
47153;SDS011;32907;41.412;2.164;2024-02-28T09:10:23;7.57;;;4.30;;
47153;SDS011;32907;41.412;2.164;2024-02-28T09:12:53;8.52;;;5.30;;
47153;SDS011;32907;41.412;2.164;2024-02-28T09:15:21;9.20;;;5.72;;
47153;SDS011;32907;41.412;2.164;2024-02-28T09:17:50;11.10;;;5.25;;
47153;SDS011;32907;41.412;2.164;2024-02-28T09:20:18;9.40;;;4.20;;
47153;SDS011;32907;41.412;2.164;2024-02-28T09:22:47;6.70;;;2.75;;
47153;SDS011;32907;41.412;2.164;2024-02-28T09:25:15;4.10;;;2.35;;
47153;SDS011;32907;41.412;2.164;2024-02-28T09:27:45;6.35;;;2.70;;
47153;SDS011;32907;41.412;2.164;2024-02-28T09:30:13;5.68;;;2.40;;
47153;SDS011;32907;41.412;2.164;2024-02-28T09:32:43;4.53;;;2.00;;
47153;SDS011;32907;41.412;2.164;2024-02-28T09:35:11;2.95;;;1.65;;
47153;SDS011;32907;41.412;2.164;2024-02-28T09:37:39;2.95;;;1.60;;
47153;SDS011;32907;41.412;2.164;2024-02-28T09:40:08;3.15;;;1.52;;
47153;SDS011;32907;41.412;2.164;2024-02-28T09:42:38;2.63;;;1.20;;
47153;SDS011;32907;41.412;2.164;2024-02-28T09:45:08;2.65;;;1.02;;
47153;SDS011;32907;41.412;2.164;2024-02-28T09:47:39;2.88;;;1.08;;
47153;SDS011;32907;41.412;2.164;2024-02-28T09:50:08;3.70;;;1.00;;
47153;SDS011;32907;41.412;2.164;2024-02-28T09:52:37;3.47;;;1.05;;
47153;SDS011;32907;41.412;2.164;2024-02-28T09:55:05;2.75;;;1.02;;
47153;SDS011;32907;41.412;2.164;2024-02-28T09:57:34;2.28;;;0.90;;
47153;SDS011;32907;41.412;2.164;2024-02-28T10:00:04;2.60;;;0.98;;
47153;SDS011;32907;41.412;2.164;2024-02-28T10:02:33;3.58;;;1.10;;
47153;SDS011;32907;41.412;2.164;2024-02-28T10:05:02;5.03;;;1.25;;
47153;SDS011;32907;41.412;2.164;2024-02-28T10:07:32;2.17;;;0.90;;
47153;SDS011;32907;41.412;2.164;2024-02-28T10:10:01;3.92;;;1.30;;
47153;SDS011;32907;41.412;2.164;2024-02-28T10:12:29;2.47;;;1.10;;
47153;SDS011;32907;41.412;2.164;2024-02-28T10:14:57;3.55;;;1.20;;
47153;SDS011;32907;41.412;2.164;2024-02-28T10:17:28;3.60;;;1.50;;
47153;SDS011;32907;41.412;2.164;2024-02-28T10:19:57;3.67;;;1.90;;
47153;SDS011;32907;41.412;2.164;2024-02-28T10:22:26;3.85;;;2.00;;
47153;SDS011;32907;41.412;2.164;2024-02-28T10:24:58;3.58;;;1.83;;
47153;SDS011;32907;41.412;2.164;2024-02-28T10:27:33;3.58;;;1.85;;
47153;SDS011;32907;41.412;2.164;2024-02-28T10:30:02;4.45;;;1.70;;
47153;SDS011;32907;41.412;2.164;2024-02-28T10:32:35;3.58;;;1.63;;
47153;SDS011;32907;41.412;2.164;2024-02-28T10:35:04;3.60;;;1.42;;
47153;SDS011;32907;41.412;2.164;2024-02-28T10:37:39;4.60;;;2.00;;
47153;SDS011;32907;41.412;2.164;2024-02-28T10:40:07;4.30;;;2.00;;
47153;SDS011;32907;41.412;2.164;2024-02-28T10:42:36;4.75;;;1.90;;
47153;SDS011;32907;41.412;2.164;2024-02-28T10:45:05;4.45;;;1.83;;
47153;SDS011;32907;41.412;2.164;2024-02-28T10:47:53;4.35;;;1.90;;
47153;SDS011;32907;41.412;2.164;2024-02-28T10:50:22;4.50;;;1.60;;
47153;SDS011;32907;41.412;2.164;2024-02-28T10:52:50;4.47;;;1.40;;
47153;SDS011;32907;41.412;2.164;2024-02-28T10:55:22;6.60;;;2.22;;
47153;SDS011;32907;41.412;2.164;2024-02-28T10:58:03;6.22;;;1.35;;
47153;SDS011;32907;41.412;2.164;2024-02-28T11:00:41;4.13;;;1.27;;
47153;SDS011;32907;41.412;2.164;2024-02-28T11:03:15;3.70;;;1.60;;
47153;SDS011;32907;41.412;2.164;2024-02-28T11:05:45;4.25;;;1.42;;
47153;SDS011;32907;41.412;2.164;2024-02-28T11:08:21;8.93;;;1.85;;
47153;SDS011;32907;41.412;2.164;2024-02-28T11:10:57;4.78;;;1.67;;
47153;SDS011;32907;41.412;2.164;2024-02-28T11:13:27;3.40;;;1.45;;
47153;SDS011;32907;41.412;2.164;2024-02-28T11:15:56;4.60;;;1.67;;
47153;SDS011;32907;41.412;2.164;2024-02-28T11:18:35;4.15;;;1.55;;
47153;SDS011;32907;41.412;2.164;2024-02-28T11:21:03;4.00;;;1.33;;
47153;SDS011;32907;41.412;2.164;2024-02-28T11:23:46;1.85;;;0.95;;
47153;SDS011;32907;41.412;2.164;2024-02-28T11:26:15;7.03;;;1.55;;
47153;SDS011;32907;41.412;2.164;2024-02-28T11:28:44;5.35;;;1.15;;
47153;SDS011;32907;41.412;2.164;2024-02-28T11:31:12;5.05;;;1.30;;
47153;SDS011;32907;41.412;2.164;2024-02-28T11:33:40;3.58;;;1.45;;
47153;SDS011;32907;41.412;2.164;2024-02-28T11:36:10;5.07;;;1.45;;
47153;SDS011;32907;41.412;2.164;2024-02-28T11:38:40;5.60;;;1.55;;
47153;SDS011;32907;41.412;2.164;2024-02-28T11:41:09;5.45;;;1.55;;
47153;SDS011;32907;41.412;2.164;2024-02-28T11:43:37;8.85;;;2.50;;
47153;SDS011;32907;41.412;2.164;2024-02-28T11:46:18;7.65;;;1.90;;
47153;SDS011;32907;41.412;2.164;2024-02-28T11:48:47;5.68;;;1.70;;
47153;SDS011;32907;41.412;2.164;2024-02-28T11:51:15;6.25;;;1.77;;
47153;SDS011;32907;41.412;2.164;2024-02-28T11:53:43;4.63;;;2.03;;
47153;SDS011;32907;41.412;2.164;2024-02-28T11:56:11;7.88;;;1.58;;
47153;SDS011;32907;41.412;2.164;2024-02-28T11:58:51;2.78;;;1.30;;
47153;SDS011;32907;41.412;2.164;2024-02-28T12:01:36;3.65;;;1.33;;
47153;SDS011;32907;41.412;2.164;2024-02-28T12:04:05;3.90;;;1.23;;
47153;SDS011;32907;41.412;2.164;2024-02-28T12:06:34;3.13;;;1.00;;
47153;SDS011;32907;41.412;2.164;2024-02-28T12:09:05;3.83;;;0.93;;
47153;SDS011;32907;41.412;2.164;2024-02-28T12:11:37;2.92;;;1.15;;
47153;SDS011;32907;41.412;2.164;2024-02-28T12:14:06;3.58;;;1.05;;
47153;SDS011;32907;41.412;2.164;2024-02-28T12:16:37;5.70;;;1.60;;
47153;SDS011;32907;41.412;2.164;2024-02-28T12:19:12;5.38;;;1.60;;
47153;SDS011;32907;41.412;2.164;2024-02-28T12:21:41;3.47;;;1.83;;
47153;SDS011;32907;41.412;2.164;2024-02-28T12:24:10;3.78;;;1.90;;
47153;SDS011;32907;41.412;2.164;2024-02-28T12:26:38;4.40;;;1.73;;
47153;SDS011;32907;41.412;2.164;2024-02-28T12:29:07;4.82;;;1.65;;
47153;SDS011;32907;41.412;2.164;2024-02-28T12:31:38;4.82;;;1.77;;
47153;SDS011;32907;41.412;2.164;2024-02-28T12:34:07;3.33;;;1.50;;
47153;SDS011;32907;41.412;2.164;2024-02-28T12:36:36;4.90;;;1.75;;
47153;SDS011;32907;41.412;2.164;2024-02-28T12:39:04;4.32;;;1.83;;
47153;SDS011;32907;41.412;2.164;2024-02-28T12:41:33;6.72;;;1.90;;
47153;SDS011;32907;41.412;2.164;2024-02-28T12:44:02;3.28;;;1.73;;
47153;SDS011;32907;41.412;2.164;2024-02-28T12:46:31;5.35;;;1.85;;
47153;SDS011;32907;41.412;2.164;2024-02-28T12:49:01;3.40;;;1.52;;
47153;SDS011;32907;41.412;2.164;2024-02-28T12:51:37;5.40;;;1.60;;
47153;SDS011;32907;41.412;2.164;2024-02-28T12:54:09;6.03;;;1.95;;
47153;SDS011;32907;41.412;2.164;2024-02-28T12:56:38;5.30;;;1.92;;
47153;SDS011;32907;41.412;2.164;2024-02-28T12:59:08;5.82;;;2.17;;
47153;SDS011;32907;41.412;2.164;2024-02-28T13:01:37;11.23;;;6.45;;
47153;SDS011;32907;41.412;2.164;2024-02-28T13:04:05;9.48;;;6.20;;
47153;SDS011;32907;41.412;2.164;2024-02-28T13:06:35;13.35;;;5.32;;
47153;SDS011;32907;41.412;2.164;2024-02-28T13:09:03;6.80;;;4.00;;
47153;SDS011;32907;41.412;2.164;2024-02-28T13:11:32;7.72;;;3.40;;
47153;SDS011;32907;41.412;2.164;2024-02-28T13:14:00;5.82;;;2.72;;
47153;SDS011;32907;41.412;2.164;2024-02-28T13:16:28;5.82;;;2.53;;
47153;SDS011;32907;41.412;2.164;2024-02-28T13:18:57;6.90;;;2.22;;
47153;SDS011;32907;41.412;2.164;2024-02-28T13:21:25;4.95;;;2.53;;
47153;SDS011;32907;41.412;2.164;2024-02-28T13:23:53;8.02;;;2.67;;
47153;SDS011;32907;41.412;2.164;2024-02-28T13:26:22;7.35;;;3.17;;
47153;SDS011;32907;41.412;2.164;2024-02-28T13:28:50;5.82;;;3.00;;
47153;SDS011;32907;41.412;2.164;2024-02-28T13:31:21;8.18;;;2.72;;
47153;SDS011;32907;41.412;2.164;2024-02-28T13:33:49;8.50;;;3.00;;
47153;SDS011;32907;41.412;2.164;2024-02-28T13:36:17;7.50;;;2.58;;
47153;SDS011;32907;41.412;2.164;2024-02-28T13:38:46;4.45;;;2.33;;
47153;SDS011;32907;41.412;2.164;2024-02-28T13:41:14;6.75;;;2.00;;
47153;SDS011;32907;41.412;2.164;2024-02-28T13:43:44;5.65;;;2.08;;
47153;SDS011;32907;41.412;2.164;2024-02-28T13:46:12;6.95;;;2.28;;
47153;SDS011;32907;41.412;2.164;2024-02-28T13:48:42;7.32;;;2.53;;
47153;SDS011;32907;41.412;2.164;2024-02-28T13:51:11;5.60;;;2.60;;
47153;SDS011;32907;41.412;2.164;2024-02-28T13:53:39;8.32;;;2.60;;
47153;SDS011;32907;41.412;2.164;2024-02-28T13:56:07;5.10;;;2.53;;
47153;SDS011;32907;41.412;2.164;2024-02-28T13:58:36;11.32;;;6.65;;
47153;SDS011;32907;41.412;2.164;2024-02-28T14:01:15;20.45;;;9.98;;
47153;SDS011;32907;41.412;2.164;2024-02-28T14:03:44;13.90;;;8.38;;
47153;SDS011;32907;41.412;2.164;2024-02-28T14:06:12;12.43;;;6.03;;
47153;SDS011;32907;41.412;2.164;2024-02-28T14:08:41;10.73;;;5.93;;
47153;SDS011;32907;41.412;2.164;2024-02-28T14:11:10;10.70;;;4.15;;
47153;SDS011;32907;41.412;2.164;2024-02-28T14:13:38;5.70;;;3.25;;
47153;SDS011;32907;41.412;2.164;2024-02-28T14:16:07;5.55;;;2.63;;
47153;SDS011;32907;41.412;2.164;2024-02-28T14:18:36;6.28;;;1.85;;
47153;SDS011;32907;41.412;2.164;2024-02-28T14:21:04;5.00;;;1.48;;
47153;SDS011;32907;41.412;2.164;2024-02-28T14:23:34;4.10;;;1.33;;
47153;SDS011;32907;41.412;2.164;2024-02-28T14:26:03;5.18;;;1.20;;
47153;SDS011;32907;41.412;2.164;2024-02-28T14:28:31;6.68;;;1.20;;
47153;SDS011;32907;41.412;2.164;2024-02-28T14:31:02;5.18;;;1.50;;
47153;SDS011;32907;41.412;2.164;2024-02-28T14:33:30;5.68;;;1.42;;
47153;SDS011;32907;41.412;2.164;2024-02-28T14:35:59;4.05;;;1.60;;
47153;SDS011;32907;41.412;2.164;2024-02-28T14:38:28;7.82;;;1.48;;
47153;SDS011;32907;41.412;2.164;2024-02-28T14:40:56;6.82;;;1.55;;
47153;SDS011;32907;41.412;2.164;2024-02-28T14:43:24;5.20;;;1.45;;
47153;SDS011;32907;41.412;2.164;2024-02-28T14:45:54;5.10;;;1.50;;
47153;SDS011;32907;41.412;2.164;2024-02-28T14:48:23;5.47;;;1.20;;
47153;SDS011;32907;41.412;2.164;2024-02-28T14:50:51;6.97;;;2.50;;
47153;SDS011;32907;41.412;2.164;2024-02-28T14:53:21;8.38;;;3.22;;
47153;SDS011;32907;41.412;2.164;2024-02-28T14:55:49;8.98;;;2.97;;
47153;SDS011;32907;41.412;2.164;2024-02-28T14:58:19;6.28;;;2.13;;
47153;SDS011;32907;41.412;2.164;2024-02-28T15:00:47;6.47;;;2.13;;
47153;SDS011;32907;41.412;2.164;2024-02-28T15:03:16;6.72;;;2.58;;
47153;SDS011;32907;41.412;2.164;2024-02-28T15:05:45;8.63;;;2.60;;
47153;SDS011;32907;41.412;2.164;2024-02-28T15:08:15;8.43;;;2.50;;